sensor_id;sensor_type;location;lat;lon;timestamp;P1;durP1;ratioP1;P2;durP2;ratioP2
15454;SDS011;21057;51.024;7.540;2023-06-14T00:00:48;14.38;;;13.48;;
15454;SDS011;21057;51.024;7.540;2023-06-14T00:03:17;14.63;;;13.63;;
15454;SDS011;21057;51.024;7.540;2023-06-14T00:05:47;14.88;;;13.93;;
15454;SDS011;21057;51.024;7.540;2023-06-14T00:08:14;14.95;;;13.85;;
15454;SDS011;21057;51.024;7.540;2023-06-14T00:10:41;15.90;;;14.57;;
15454;SDS011;21057;51.024;7.540;2023-06-14T00:13:09;16.08;;;14.88;;
15454;SDS011;21057;51.024;7.540;2023-06-14T00:15:37;14.93;;;13.80;;
15454;SDS011;21057;51.024;7.540;2023-06-14T00:18:05;15.60;;;14.32;;
15454;SDS011;21057;51.024;7.540;2023-06-14T00:20:32;15.10;;;14.05;;
15454;SDS011;21057;51.024;7.540;2023-06-14T00:22:59;15.00;;;14.00;;
15454;SDS011;21057;51.024;7.540;2023-06-14T00:25:26;15.32;;;14.35;;
15454;SDS011;21057;51.024;7.540;2023-06-14T00:27:53;15.05;;;14.02;;
15454;SDS011;21057;51.024;7.540;2023-06-14T00:30:22;15.38;;;14.38;;
15454;SDS011;21057;51.024;7.540;2023-06-14T00:32:49;15.48;;;14.45;;
15454;SDS011;21057;51.024;7.540;2023-06-14T00:35:17;14.82;;;13.73;;
15454;SDS011;21057;51.024;7.540;2023-06-14T00:37:43;14.88;;;13.90;;
15454;SDS011;21057;51.024;7.540;2023-06-14T00:40:10;14.73;;;13.73;;
15454;SDS011;21057;51.024;7.540;2023-06-14T00:42:37;14.27;;;13.45;;
15454;SDS011;21057;51.024;7.540;2023-06-14T00:45:05;15.00;;;14.10;;
15454;SDS011;21057;51.024;7.540;2023-06-14T00:47:33;14.85;;;13.95;;
15454;SDS011;21057;51.024;7.540;2023-06-14T00:50:02;14.82;;;13.82;;
15454;SDS011;21057;51.024;7.540;2023-06-14T00:52:32;15.15;;;14.10;;
15454;SDS011;21057;51.024;7.540;2023-06-14T00:54:59;14.63;;;13.73;;
15454;SDS011;21057;51.024;7.540;2023-06-14T00:57:26;14.80;;;13.80;;
15454;SDS011;21057;51.024;7.540;2023-06-14T00:59:54;15.48;;;14.38;;
15454;SDS011;21057;51.024;7.540;2023-06-14T01:02:21;15.57;;;14.48;;
15454;SDS011;21057;51.024;7.540;2023-06-14T01:04:50;15.02;;;13.80;;
15454;SDS011;21057;51.024;7.540;2023-06-14T01:07:21;15.35;;;14.25;;
15454;SDS011;21057;51.024;7.540;2023-06-14T01:10:00;15.32;;;14.23;;
15454;SDS011;21057;51.024;7.540;2023-06-14T01:12:35;15.70;;;14.40;;
15454;SDS011;21057;51.024;7.540;2023-06-14T01:15:08;14.90;;;13.80;;
15454;SDS011;21057;51.024;7.540;2023-06-14T01:17:36;14.90;;;14.00;;
15454;SDS011;21057;51.024;7.540;2023-06-14T01:20:10;14.52;;;13.43;;
15454;SDS011;21057;51.024;7.540;2023-06-14T01:22:47;15.32;;;14.23;;
15454;SDS011;21057;51.024;7.540;2023-06-14T01:25:17;14.75;;;13.75;;
15454;SDS011;21057;51.024;7.540;2023-06-14T01:27:46;14.32;;;13.43;;
15454;SDS011;21057;51.024;7.540;2023-06-14T01:30:14;15.07;;;13.65;;
15454;SDS011;21057;51.024;7.540;2023-06-14T01:32:42;14.57;;;13.68;;
15454;SDS011;21057;51.024;7.540;2023-06-14T01:35:10;15.20;;;14.10;;
15454;SDS011;21057;51.024;7.540;2023-06-14T01:37:37;14.55;;;13.65;;
15454;SDS011;21057;51.024;7.540;2023-06-14T01:40:07;14.85;;;13.82;;
15454;SDS011;21057;51.024;7.540;2023-06-14T01:42:36;14.45;;;13.55;;
15454;SDS011;21057;51.024;7.540;2023-06-14T01:45:05;14.90;;;13.90;;
15454;SDS011;21057;51.024;7.540;2023-06-14T01:47:33;14.75;;;13.85;;
15454;SDS011;21057;51.024;7.540;2023-06-14T01:50:01;14.98;;;14.07;;
15454;SDS011;21057;51.024;7.540;2023-06-14T01:52:28;14.65;;;13.75;;
15454;SDS011;21057;51.024;7.540;2023-06-14T01:54:55;14.52;;;13.63;;
15454;SDS011;21057;51.024;7.540;2023-06-14T01:57:24;14.38;;;13.48;;
15454;SDS011;21057;51.024;7.540;2023-06-14T01:59:52;15.18;;;14.18;;
15454;SDS011;21057;51.024;7.540;2023-06-14T02:02:19;15.32;;;14.25;;
15454;SDS011;21057;51.024;7.540;2023-06-14T02:04:46;15.45;;;14.27;;
15454;SDS011;21057;51.024;7.540;2023-06-14T02:07:13;14.68;;;13.85;;
15454;SDS011;21057;51.024;7.540;2023-06-14T02:09:40;15.05;;;14.15;;
15454;SDS011;21057;51.024;7.540;2023-06-14T02:12:08;14.93;;;14.02;;
15454;SDS011;21057;51.024;7.540;2023-06-14T02:14:37;14.88;;;13.85;;
15454;SDS011;21057;51.024;7.540;2023-06-14T02:17:04;15.57;;;14.27;;
15454;SDS011;21057;51.024;7.540;2023-06-14T02:19:31;15.40;;;14.18;;
15454;SDS011;21057;51.024;7.540;2023-06-14T02:21:58;15.05;;;14.00;;
15454;SDS011;21057;51.024;7.540;2023-06-14T02:24:25;14.90;;;13.73;;
15454;SDS011;21057;51.024;7.540;2023-06-14T02:26:52;15.30;;;14.10;;
15454;SDS011;21057;51.024;7.540;2023-06-14T02:29:18;14.27;;;13.43;;
15454;SDS011;21057;51.024;7.540;2023-06-14T02:31:47;14.95;;;13.90;;
15454;SDS011;21057;51.024;7.540;2023-06-14T02:34:14;15.55;;;14.55;;
15454;SDS011;21057;51.024;7.540;2023-06-14T02:36:43;15.27;;;14.23;;
15454;SDS011;21057;51.024;7.540;2023-06-14T02:39:10;14.70;;;13.77;;
15454;SDS011;21057;51.024;7.540;2023-06-14T02:41:37;14.60;;;13.50;;
15454;SDS011;21057;51.024;7.540;2023-06-14T02:44:04;13.93;;;13.13;;
15454;SDS011;21057;51.024;7.540;2023-06-14T02:46:32;14.93;;;14.00;;
15454;SDS011;21057;51.024;7.540;2023-06-14T02:49:00;14.90;;;13.88;;
15454;SDS011;21057;51.024;7.540;2023-06-14T02:51:27;14.98;;;13.98;;
15454;SDS011;21057;51.024;7.540;2023-06-14T02:53:54;14.70;;;13.80;;
15454;SDS011;21057;51.024;7.540;2023-06-14T02:56:20;14.20;;;13.40;;
15454;SDS011;21057;51.024;7.540;2023-06-14T02:58:47;14.48;;;13.60;;
15454;SDS011;21057;51.024;7.540;2023-06-14T03:01:15;14.65;;;13.70;;
15454;SDS011;21057;51.024;7.540;2023-06-14T03:03:43;15.40;;;14.30;;
15454;SDS011;21057;51.024;7.540;2023-06-14T03:06:11;18.98;;;13.43;;
15454;SDS011;21057;51.024;7.540;2023-06-14T03:08:38;13.60;;;12.80;;
15454;SDS011;21057;51.024;7.540;2023-06-14T03:11:06;14.90;;;14.00;;
15454;SDS011;21057;51.024;7.540;2023-06-14T03:13:34;14.90;;;13.80;;
15454;SDS011;21057;51.024;7.540;2023-06-14T03:16:01;15.10;;;14.30;;
15454;SDS011;21057;51.024;7.540;2023-06-14T03:18:29;15.45;;;14.40;;
15454;SDS011;21057;51.024;7.540;2023-06-14T03:20:55;15.23;;;14.13;;
15454;SDS011;21057;51.024;7.540;2023-06-14T03:23:27;14.10;;;13.30;;
15454;SDS011;21057;51.024;7.540;2023-06-14T03:25:54;14.52;;;13.65;;
15454;SDS011;21057;51.024;7.540;2023-06-14T03:28:21;14.85;;;13.95;;
15454;SDS011;21057;51.024;7.540;2023-06-14T03:30:48;14.00;;;13.20;;
15454;SDS011;21057;51.024;7.540;2023-06-14T03:33:14;13.48;;;12.48;;
15454;SDS011;21057;51.024;7.540;2023-06-14T03:35:42;13.50;;;12.60;;
15454;SDS011;21057;51.024;7.540;2023-06-14T03:38:09;13.20;;;12.50;;
15454;SDS011;21057;51.024;7.540;2023-06-14T03:40:37;14.07;;;13.18;;
15454;SDS011;21057;51.024;7.540;2023-06-14T03:43:04;14.27;;;13.38;;
15454;SDS011;21057;51.024;7.540;2023-06-14T03:45:31;14.02;;;13.02;;
15454;SDS011;21057;51.024;7.540;2023-06-14T03:47:58;14.55;;;13.70;;
15454;SDS011;21057;51.024;7.540;2023-06-14T03:50:25;15.25;;;14.25;;
15454;SDS011;21057;51.024;7.540;2023-06-14T03:52:52;14.23;;;13.30;;
15454;SDS011;21057;51.024;7.540;2023-06-14T03:55:19;13.73;;;12.93;;
15454;SDS011;21057;51.024;7.540;2023-06-14T03:57:47;14.23;;;13.32;;
15454;SDS011;21057;51.024;7.540;2023-06-14T04:00:14;13.75;;;12.95;;
15454;SDS011;21057;51.024;7.540;2023-06-14T04:02:41;13.75;;;12.95;;
15454;SDS011;21057;51.024;7.540;2023-06-14T04:05:09;13.82;;;12.90;;
15454;SDS011;21057;51.024;7.540;2023-06-14T04:07:35;13.27;;;12.48;;
15454;SDS011;21057;51.024;7.540;2023-06-14T04:10:05;13.82;;;13.02;;
15454;SDS011;21057;51.024;7.540;2023-06-14T04:12:33;14.18;;;12.90;;
15454;SDS011;21057;51.024;7.540;2023-06-14T04:15:01;13.70;;;12.73;;
15454;SDS011;21057;51.024;7.540;2023-06-14T04:17:28;13.70;;;12.90;;
15454;SDS011;21057;51.024;7.540;2023-06-14T04:19:59;13.57;;;12.45;;
15454;SDS011;21057;51.024;7.540;2023-06-14T04:22:26;13.80;;;12.90;;
15454;SDS011;21057;51.024;7.540;2023-06-14T04:24:53;13.52;;;12.77;;
15454;SDS011;21057;51.024;7.540;2023-06-14T04:27:21;13.68;;;12.77;;
15454;SDS011;21057;51.024;7.540;2023-06-14T04:29:50;14.00;;;13.20;;
15454;SDS011;21057;51.024;7.540;2023-06-14T04:32:23;14.75;;;13.82;;
15454;SDS011;21057;51.024;7.540;2023-06-14T04:34:51;15.32;;;14.43;;
15454;SDS011;21057;51.024;7.540;2023-06-14T04:37:19;14.15;;;13.35;;
15454;SDS011;21057;51.024;7.540;2023-06-14T04:39:47;15.20;;;14.07;;
15454;SDS011;21057;51.024;7.540;2023-06-14T04:42:14;14.52;;;13.32;;
15454;SDS011;21057;51.024;7.540;2023-06-14T04:44:41;13.98;;;13.07;;
15454;SDS011;21057;51.024;7.540;2023-06-14T04:47:08;14.15;;;13.20;;
15454;SDS011;21057;51.024;7.540;2023-06-14T04:49:37;13.93;;;13.05;;
15454;SDS011;21057;51.024;7.540;2023-06-14T04:52:06;13.85;;;12.93;;
15454;SDS011;21057;51.024;7.540;2023-06-14T04:54:35;14.02;;;13.13;;
15454;SDS011;21057;51.024;7.540;2023-06-14T04:57:03;13.73;;;12.82;;
15454;SDS011;21057;51.024;7.540;2023-06-14T04:59:30;14.10;;;13.20;;
15454;SDS011;21057;51.024;7.540;2023-06-14T05:01:58;14.13;;;13.23;;
15454;SDS011;21057;51.024;7.540;2023-06-14T05:04:25;14.48;;;13.57;;
15454;SDS011;21057;51.024;7.540;2023-06-14T05:06:54;14.25;;;13.43;;
15454;SDS011;21057;51.024;7.540;2023-06-14T05:09:21;14.55;;;13.65;;
15454;SDS011;21057;51.024;7.540;2023-06-14T05:11:48;14.77;;;13.80;;
15454;SDS011;21057;51.024;7.540;2023-06-14T05:14:15;13.98;;;13.07;;
15454;SDS011;21057;51.024;7.540;2023-06-14T05:16:43;14.40;;;13.50;;
15454;SDS011;21057;51.024;7.540;2023-06-14T05:19:10;14.38;;;13.15;;
15454;SDS011;21057;51.024;7.540;2023-06-14T05:21:37;14.35;;;13.45;;
15454;SDS011;21057;51.024;7.540;2023-06-14T05:24:06;13.85;;;13.05;;
15454;SDS011;21057;51.024;7.540;2023-06-14T05:26:34;13.70;;;12.90;;
15454;SDS011;21057;51.024;7.540;2023-06-14T05:29:01;14.15;;;13.25;;
15454;SDS011;21057;51.024;7.540;2023-06-14T05:31:28;14.75;;;13.73;;
15454;SDS011;21057;51.024;7.540;2023-06-14T05:33:55;13.95;;;13.05;;
15454;SDS011;21057;51.024;7.540;2023-06-14T05:36:22;14.00;;;13.13;;
15454;SDS011;21057;51.024;7.540;2023-06-14T05:38:48;14.23;;;13.43;;
15454;SDS011;21057;51.024;7.540;2023-06-14T05:41:23;14.65;;;13.65;;
15454;SDS011;21057;51.024;7.540;2023-06-14T05:43:50;14.75;;;13.85;;
15454;SDS011;21057;51.024;7.540;2023-06-14T05:46:17;14.90;;;13.90;;
15454;SDS011;21057;51.024;7.540;2023-06-14T05:48:47;14.70;;;13.80;;
15454;SDS011;21057;51.024;7.540;2023-06-14T05:51:17;14.93;;;14.02;;
15454;SDS011;21057;51.024;7.540;2023-06-14T05:53:44;14.75;;;13.95;;
15454;SDS011;21057;51.024;7.540;2023-06-14T05:56:11;14.63;;;13.80;;
15454;SDS011;21057;51.024;7.540;2023-06-14T05:58:40;14.40;;;13.60;;
15454;SDS011;21057;51.024;7.540;2023-06-14T06:01:07;14.55;;;13.75;;
15454;SDS011;21057;51.024;7.540;2023-06-14T06:03:34;14.90;;;14.10;;
15454;SDS011;21057;51.024;7.540;2023-06-14T06:06:00;15.20;;;14.20;;
15454;SDS011;21057;51.024;7.540;2023-06-14T06:08:28;15.80;;;14.80;;
15454;SDS011;21057;51.024;7.540;2023-06-14T06:10:55;14.77;;;13.98;;
15454;SDS011;21057;51.024;7.540;2023-06-14T06:13:21;16.05;;;14.70;;
15454;SDS011;21057;51.024;7.540;2023-06-14T06:15:50;15.05;;;14.07;;
15454;SDS011;21057;51.024;7.540;2023-06-14T06:18:17;14.77;;;13.98;;
15454;SDS011;21057;51.024;7.540;2023-06-14T06:20:44;15.20;;;14.30;;
15454;SDS011;21057;51.024;7.540;2023-06-14T06:23:12;15.13;;;14.25;;
15454;SDS011;21057;51.024;7.540;2023-06-14T06:25:39;14.80;;;13.90;;
15454;SDS011;21057;51.024;7.540;2023-06-14T06:28:06;15.15;;;14.18;;
15454;SDS011;21057;51.024;7.540;2023-06-14T06:30:33;14.32;;;13.55;;
15454;SDS011;21057;51.024;7.540;2023-06-14T06:33:02;14.57;;;13.52;;
15454;SDS011;21057;51.024;7.540;2023-06-14T06:35:29;13.98;;;13.13;;
15454;SDS011;21057;51.024;7.540;2023-06-14T06:37:58;14.80;;;13.82;;
15454;SDS011;21057;51.024;7.540;2023-06-14T06:40:25;15.48;;;14.48;;
15454;SDS011;21057;51.024;7.540;2023-06-14T06:42:52;14.55;;;13.75;;
15454;SDS011;21057;51.024;7.540;2023-06-14T06:45:19;14.55;;;13.65;;
15454;SDS011;21057;51.024;7.540;2023-06-14T06:47:48;14.57;;;13.77;;
15454;SDS011;21057;51.024;7.540;2023-06-14T06:50:17;14.13;;;13.13;;
15454;SDS011;21057;51.024;7.540;2023-06-14T06:52:44;13.75;;;12.95;;
15454;SDS011;21057;51.024;7.540;2023-06-14T06:55:11;14.20;;;13.30;;
15454;SDS011;21057;51.024;7.540;2023-06-14T06:57:38;14.55;;;13.65;;
15454;SDS011;21057;51.024;7.540;2023-06-14T07:00:07;14.57;;;13.77;;
15454;SDS011;21057;51.024;7.540;2023-06-14T07:02:35;13.75;;;12.95;;
15454;SDS011;21057;51.024;7.540;2023-06-14T07:05:02;13.35;;;12.55;;
15454;SDS011;21057;51.024;7.540;2023-06-14T07:07:30;13.93;;;13.13;;
15454;SDS011;21057;51.024;7.540;2023-06-14T07:09:57;14.80;;;13.90;;
15454;SDS011;21057;51.024;7.540;2023-06-14T07:12:25;14.82;;;13.93;;
15454;SDS011;21057;51.024;7.540;2023-06-14T07:14:52;14.85;;;14.05;;
15454;SDS011;21057;51.024;7.540;2023-06-14T07:17:19;15.38;;;14.48;;
15454;SDS011;21057;51.024;7.540;2023-06-14T07:19:45;14.65;;;13.85;;
15454;SDS011;21057;51.024;7.540;2023-06-14T07:22:12;14.48;;;13.63;;
15454;SDS011;21057;51.024;7.540;2023-06-14T07:24:41;15.57;;;14.45;;
15454;SDS011;21057;51.024;7.540;2023-06-14T07:27:07;15.20;;;14.40;;
15454;SDS011;21057;51.024;7.540;2023-06-14T07:29:35;16.27;;;15.27;;
15454;SDS011;21057;51.024;7.540;2023-06-14T07:32:01;15.43;;;14.60;;
15454;SDS011;21057;51.024;7.540;2023-06-14T07:34:29;15.82;;;14.93;;
15454;SDS011;21057;51.024;7.540;2023-06-14T07:36:55;15.88;;;14.98;;
15454;SDS011;21057;51.024;7.540;2023-06-14T07:39:22;15.48;;;14.57;;
15454;SDS011;21057;51.024;7.540;2023-06-14T07:41:50;16.13;;;15.05;;
15454;SDS011;21057;51.024;7.540;2023-06-14T07:44:17;15.73;;;14.82;;
15454;SDS011;21057;51.024;7.540;2023-06-14T07:46:44;15.93;;;15.00;;
15454;SDS011;21057;51.024;7.540;2023-06-14T07:49:14;15.23;;;14.30;;
15454;SDS011;21057;51.024;7.540;2023-06-14T07:51:41;15.32;;;14.43;;
15454;SDS011;21057;51.024;7.540;2023-06-14T07:54:09;15.23;;;14.23;;
15454;SDS011;21057;51.024;7.540;2023-06-14T07:56:36;15.65;;;14.75;;
15454;SDS011;21057;51.024;7.540;2023-06-14T07:59:04;15.82;;;14.93;;
15454;SDS011;21057;51.024;7.540;2023-06-14T08:01:32;16.17;;;15.00;;
15454;SDS011;21057;51.024;7.540;2023-06-14T08:03:59;15.45;;;14.55;;
15454;SDS011;21057;51.024;7.540;2023-06-14T08:06:26;15.75;;;14.85;;
15454;SDS011;21057;51.024;7.540;2023-06-14T08:08:53;15.63;;;14.73;;
15454;SDS011;21057;51.024;7.540;2023-06-14T08:11:20;16.20;;;15.10;;
15454;SDS011;21057;51.024;7.540;2023-06-14T08:13:49;14.57;;;13.77;;
15454;SDS011;21057;51.024;7.540;2023-06-14T08:16:17;15.00;;;14.10;;
15454;SDS011;21057;51.024;7.540;2023-06-14T08:18:44;15.20;;;14.30;;
15454;SDS011;21057;51.024;7.540;2023-06-14T08:21:11;15.23;;;14.32;;
15454;SDS011;21057;51.024;7.540;2023-06-14T08:23:39;16.00;;;15.10;;
15454;SDS011;21057;51.024;7.540;2023-06-14T08:26:07;15.63;;;14.73;;
15454;SDS011;21057;51.024;7.540;2023-06-14T08:28:34;15.43;;;14.57;;
15454;SDS011;21057;51.024;7.540;2023-06-14T08:31:01;15.85;;;14.90;;
15454;SDS011;21057;51.024;7.540;2023-06-14T08:33:29;15.95;;;15.05;;
15454;SDS011;21057;51.024;7.540;2023-06-14T08:35:58;16.13;;;15.20;;
15454;SDS011;21057;51.024;7.540;2023-06-14T08:38:25;15.40;;;14.60;;
15454;SDS011;21057;51.024;7.540;2023-06-14T08:40:52;14.98;;;14.18;;
15454;SDS011;21057;51.024;7.540;2023-06-14T08:43:23;15.95;;;14.60;;
15454;SDS011;21057;51.024;7.540;2023-06-14T08:45:50;14.63;;;13.82;;
15454;SDS011;21057;51.024;7.540;2023-06-14T08:48:22;15.80;;;14.90;;
15454;SDS011;21057;51.024;7.540;2023-06-14T08:50:54;15.43;;;14.60;;
15454;SDS011;21057;51.024;7.540;2023-06-14T08:53:27;15.77;;;14.88;;
15454;SDS011;21057;51.024;7.540;2023-06-14T08:55:57;15.82;;;14.93;;
15454;SDS011;21057;51.024;7.540;2023-06-14T08:58:25;15.80;;;14.90;;
15454;SDS011;21057;51.024;7.540;2023-06-14T09:00:54;16.48;;;15.23;;
15454;SDS011;21057;51.024;7.540;2023-06-14T09:03:21;16.13;;;15.23;;
15454;SDS011;21057;51.024;7.540;2023-06-14T09:05:56;15.38;;;14.57;;
15454;SDS011;21057;51.024;7.540;2023-06-14T09:08:24;16.38;;;15.23;;
15454;SDS011;21057;51.024;7.540;2023-06-14T09:10:51;16.15;;;15.25;;
15454;SDS011;21057;51.024;7.540;2023-06-14T09:13:18;16.00;;;15.10;;
15454;SDS011;21057;51.024;7.540;2023-06-14T09:15:45;15.48;;;14.63;;
15454;SDS011;21057;51.024;7.540;2023-06-14T09:18:12;15.35;;;14.55;;
15454;SDS011;21057;51.024;7.540;2023-06-14T09:20:38;16.10;;;15.10;;
15454;SDS011;21057;51.024;7.540;2023-06-14T09:23:08;15.18;;;14.27;;
15454;SDS011;21057;51.024;7.540;2023-06-14T09:25:42;15.38;;;14.23;;
15454;SDS011;21057;51.024;7.540;2023-06-14T09:28:09;15.18;;;14.38;;
15454;SDS011;21057;51.024;7.540;2023-06-14T09:30:36;15.65;;;14.75;;
15454;SDS011;21057;51.024;7.540;2023-06-14T09:33:03;15.60;;;14.60;;
15454;SDS011;21057;51.024;7.540;2023-06-14T09:35:31;15.25;;;14.35;;
15454;SDS011;21057;51.024;7.540;2023-06-14T09:37:58;16.23;;;15.20;;
15454;SDS011;21057;51.024;7.540;2023-06-14T09:40:26;16.90;;;15.90;;
15454;SDS011;21057;51.024;7.540;2023-06-14T09:42:53;15.75;;;14.85;;
15454;SDS011;21057;51.024;7.540;2023-06-14T09:45:22;15.30;;;14.50;;
15454;SDS011;21057;51.024;7.540;2023-06-14T09:47:50;15.77;;;14.88;;
15454;SDS011;21057;51.024;7.540;2023-06-14T09:50:17;15.30;;;14.27;;
15454;SDS011;21057;51.024;7.540;2023-06-14T09:52:44;15.50;;;14.70;;
15454;SDS011;21057;51.024;7.540;2023-06-14T09:55:14;15.30;;;14.45;;
15454;SDS011;21057;51.024;7.540;2023-06-14T09:57:43;15.52;;;14.63;;
15454;SDS011;21057;51.024;7.540;2023-06-14T10:00:14;15.57;;;14.73;;
15454;SDS011;21057;51.024;7.540;2023-06-14T10:02:41;15.88;;;14.98;;
15454;SDS011;21057;51.024;7.540;2023-06-14T10:05:15;15.38;;;14.57;;
15454;SDS011;21057;51.024;7.540;2023-06-14T10:07:48;15.80;;;14.90;;
15454;SDS011;21057;51.024;7.540;2023-06-14T10:10:19;15.93;;;14.88;;
15454;SDS011;21057;51.024;7.540;2023-06-14T10:12:47;15.90;;;15.00;;
15454;SDS011;21057;51.024;7.540;2023-06-14T10:15:15;15.50;;;14.50;;
15454;SDS011;21057;51.024;7.540;2023-06-14T10:17:47;14.85;;;14.05;;
15454;SDS011;21057;51.024;7.540;2023-06-14T10:20:20;14.75;;;13.95;;
15454;SDS011;21057;51.024;7.540;2023-06-14T10:22:55;15.35;;;14.50;;
15454;SDS011;21057;51.024;7.540;2023-06-14T10:25:26;15.07;;;14.27;;
15454;SDS011;21057;51.024;7.540;2023-06-14T10:28:03;14.68;;;13.80;;
15454;SDS011;21057;51.024;7.540;2023-06-14T10:30:41;15.32;;;14.43;;
15454;SDS011;21057;51.024;7.540;2023-06-14T10:33:29;15.05;;;14.25;;
15454;SDS011;21057;51.024;7.540;2023-06-14T10:36:06;15.13;;;14.32;;
15454;SDS011;21057;51.024;7.540;2023-06-14T10:38:34;14.60;;;13.80;;
15454;SDS011;21057;51.024;7.540;2023-06-14T10:41:03;16.17;;;14.70;;
15454;SDS011;21057;51.024;7.540;2023-06-14T10:43:31;15.50;;;14.60;;
15454;SDS011;21057;51.024;7.540;2023-06-14T10:46:12;14.95;;;14.10;;
15454;SDS011;21057;51.024;7.540;2023-06-14T10:48:40;15.68;;;14.77;;
15454;SDS011;21057;51.024;7.540;2023-06-14T10:51:14;15.50;;;14.70;;
15454;SDS011;21057;51.024;7.540;2023-06-14T10:53:45;16.48;;;15.52;;
15454;SDS011;21057;51.024;7.540;2023-06-14T10:56:22;16.20;;;15.30;;
15454;SDS011;21057;51.024;7.540;2023-06-14T10:58:56;15.98;;;15.05;;
15454;SDS011;21057;51.024;7.540;2023-06-14T11:01:29;15.57;;;14.68;;
15454;SDS011;21057;51.024;7.540;2023-06-14T11:04:08;15.93;;;14.82;;
15454;SDS011;21057;51.024;7.540;2023-06-14T11:09:44;15.23;;;14.32;;
15454;SDS011;21057;51.024;7.540;2023-06-14T11:12:25;15.20;;;14.40;;
15454;SDS011;21057;51.024;7.540;2023-06-14T11:14:55;15.40;;;14.60;;
15454;SDS011;21057;51.024;7.540;2023-06-14T11:17:22;15.77;;;14.88;;
15454;SDS011;21057;51.024;7.540;2023-06-14T11:19:49;15.55;;;14.75;;
15454;SDS011;21057;51.024;7.540;2023-06-14T11:22:16;15.27;;;14.43;;
15454;SDS011;21057;51.024;7.540;2023-06-14T11:24:43;15.10;;;14.20;;
15454;SDS011;21057;51.024;7.540;2023-06-14T11:27:10;14.90;;;14.10;;
15454;SDS011;21057;51.024;7.540;2023-06-14T11:29:37;16.00;;;15.10;;
15454;SDS011;21057;51.024;7.540;2023-06-14T11:32:07;15.70;;;14.80;;
15454;SDS011;21057;51.024;7.540;2023-06-14T11:34:37;15.80;;;14.93;;
15454;SDS011;21057;51.024;7.540;2023-06-14T11:37:04;15.30;;;14.40;;
15454;SDS011;21057;51.024;7.540;2023-06-14T11:39:31;15.70;;;14.80;;
15454;SDS011;21057;51.024;7.540;2023-06-14T11:41:58;15.10;;;14.30;;
15454;SDS011;21057;51.024;7.540;2023-06-14T11:44:26;15.80;;;14.90;;
15454;SDS011;21057;51.024;7.540;2023-06-14T11:46:54;15.48;;;14.68;;
15454;SDS011;21057;51.024;7.540;2023-06-14T11:49:23;15.75;;;14.95;;
15454;SDS011;21057;51.024;7.540;2023-06-14T11:51:53;16.25;;;15.35;;
15454;SDS011;21057;51.024;7.540;2023-06-14T11:54:20;16.17;;;15.18;;
15454;SDS011;21057;51.024;7.540;2023-06-14T11:56:47;15.85;;;14.95;;
15454;SDS011;21057;51.024;7.540;2023-06-14T11:59:14;16.17;;;15.27;;
15454;SDS011;21057;51.024;7.540;2023-06-14T12:01:42;16.35;;;15.45;;
15454;SDS011;21057;51.024;7.540;2023-06-14T12:04:24;16.70;;;15.70;;
15454;SDS011;21057;51.024;7.540;2023-06-14T12:06:52;16.88;;;15.88;;
15454;SDS011;21057;51.024;7.540;2023-06-14T12:09:20;16.70;;;15.80;;
15454;SDS011;21057;51.024;7.540;2023-06-14T12:11:49;16.60;;;15.60;;
15454;SDS011;21057;51.024;7.540;2023-06-14T12:14:16;15.93;;;15.02;;
15454;SDS011;21057;51.024;7.540;2023-06-14T12:16:43;15.93;;;15.02;;
15454;SDS011;21057;51.024;7.540;2023-06-14T12:19:11;16.25;;;15.35;;
15454;SDS011;21057;51.024;7.540;2023-06-14T12:21:41;16.40;;;15.40;;
15454;SDS011;21057;51.024;7.540;2023-06-14T12:24:09;16.30;;;15.38;;
15454;SDS011;21057;51.024;7.540;2023-06-14T12:26:38;16.55;;;15.45;;
15454;SDS011;21057;51.024;7.540;2023-06-14T12:29:08;16.60;;;15.70;;
15454;SDS011;21057;51.024;7.540;2023-06-14T12:31:35;16.83;;;15.93;;
15454;SDS011;21057;51.024;7.540;2023-06-14T12:34:02;16.63;;;15.73;;
15454;SDS011;21057;51.024;7.540;2023-06-14T12:39:57;16.45;;;15.55;;
15454;SDS011;21057;51.024;7.540;2023-06-14T12:42:24;15.70;;;14.80;;
15454;SDS011;21057;51.024;7.540;2023-06-14T12:44:51;16.70;;;15.60;;
15454;SDS011;21057;51.024;7.540;2023-06-14T12:47:18;16.33;;;15.43;;
15454;SDS011;21057;51.024;7.540;2023-06-14T12:49:45;17.17;;;15.77;;
15454;SDS011;21057;51.024;7.540;2023-06-14T12:52:12;15.95;;;15.05;;
15454;SDS011;21057;51.024;7.540;2023-06-14T12:54:39;16.45;;;15.48;;
15454;SDS011;21057;51.024;7.540;2023-06-14T12:57:07;16.23;;;15.32;;
15454;SDS011;21057;51.024;7.540;2023-06-14T12:59:35;16.58;;;15.68;;
15454;SDS011;21057;51.024;7.540;2023-06-14T13:02:12;16.35;;;15.40;;
15454;SDS011;21057;51.024;7.540;2023-06-14T13:04:39;16.10;;;15.20;;
15454;SDS011;21057;51.024;7.540;2023-06-14T13:07:06;16.92;;;16.02;;
15454;SDS011;21057;51.024;7.540;2023-06-14T13:09:33;16.52;;;15.60;;
15454;SDS011;21057;51.024;7.540;2023-06-14T13:12:01;16.70;;;15.80;;
15454;SDS011;21057;51.024;7.540;2023-06-14T13:14:29;16.25;;;15.35;;
15454;SDS011;21057;51.024;7.540;2023-06-14T13:16:57;16.35;;;15.45;;
15454;SDS011;21057;51.024;7.540;2023-06-14T13:19:24;16.33;;;15.43;;
15454;SDS011;21057;51.024;7.540;2023-06-14T13:21:50;16.80;;;15.90;;
15454;SDS011;21057;51.024;7.540;2023-06-14T13:24:17;17.02;;;15.77;;
15454;SDS011;21057;51.024;7.540;2023-06-14T13:26:44;16.27;;;15.38;;
15454;SDS011;21057;51.024;7.540;2023-06-14T13:29:11;16.23;;;15.32;;
15454;SDS011;21057;51.024;7.540;2023-06-14T13:31:39;15.93;;;15.02;;
15454;SDS011;21057;51.024;7.540;2023-06-14T13:34:06;15.52;;;14.63;;
15454;SDS011;21057;51.024;7.540;2023-06-14T13:36:33;15.70;;;14.80;;
15454;SDS011;21057;51.024;7.540;2023-06-14T13:39:00;15.60;;;14.70;;
15454;SDS011;21057;51.024;7.540;2023-06-14T13:41:27;16.27;;;15.38;;
15454;SDS011;21057;51.024;7.540;2023-06-14T13:43:56;16.45;;;15.45;;
15454;SDS011;21057;51.024;7.540;2023-06-14T13:46:24;15.25;;;14.35;;
15454;SDS011;21057;51.024;7.540;2023-06-14T13:48:53;15.43;;;14.52;;
15454;SDS011;21057;51.024;7.540;2023-06-14T13:51:20;14.95;;;14.15;;
15454;SDS011;21057;51.024;7.540;2023-06-14T13:53:47;14.70;;;13.80;;
15454;SDS011;21057;51.024;7.540;2023-06-14T13:56:15;14.70;;;13.90;;
15454;SDS011;21057;51.024;7.540;2023-06-14T13:58:43;15.18;;;14.18;;
15454;SDS011;21057;51.024;7.540;2023-06-14T14:01:10;15.45;;;14.55;;
15454;SDS011;21057;51.024;7.540;2023-06-14T14:03:37;16.08;;;15.07;;
15454;SDS011;21057;51.024;7.540;2023-06-14T14:06:06;14.77;;;13.98;;
15454;SDS011;21057;51.024;7.540;2023-06-14T14:08:32;14.93;;;14.13;;
15454;SDS011;21057;51.024;7.540;2023-06-14T14:11:00;15.00;;;14.20;;
15454;SDS011;21057;51.024;7.540;2023-06-14T14:13:27;15.20;;;14.30;;
15454;SDS011;21057;51.024;7.540;2023-06-14T14:15:54;15.77;;;14.77;;
15454;SDS011;21057;51.024;7.540;2023-06-14T14:18:21;16.17;;;15.27;;
15454;SDS011;21057;51.024;7.540;2023-06-14T14:20:47;15.30;;;14.30;;
15454;SDS011;21057;51.024;7.540;2023-06-14T14:23:16;15.07;;;14.25;;
15454;SDS011;21057;51.024;7.540;2023-06-14T14:25:45;15.40;;;14.60;;
15454;SDS011;21057;51.024;7.540;2023-06-14T14:28:11;14.88;;;14.07;;
15454;SDS011;21057;51.024;7.540;2023-06-14T14:30:43;14.52;;;13.73;;
15454;SDS011;21057;51.024;7.540;2023-06-14T14:33:12;14.32;;;13.50;;